sensor_id;sensor_type;location;lat;lon;timestamp;pressure;altitude;pressure_sealevel;temperature;humidity
42431;BME280;71905;47.466;19.024;2023-08-21T00:01:53;100601.84;;;24.51;91.98
42431;BME280;71905;47.466;19.024;2023-08-21T00:04:21;100607.25;;;24.51;92.37
42431;BME280;71905;47.466;19.024;2023-08-21T00:06:49;100600.41;;;24.47;92.59
42431;BME280;71905;47.466;19.024;2023-08-21T00:09:17;100597.84;;;24.45;92.52
42431;BME280;71905;47.466;19.024;2023-08-21T00:11:45;100601.41;;;24.46;92.80
42431;BME280;71905;47.466;19.024;2023-08-21T00:14:14;100604.25;;;24.44;92.51
42431;BME280;71905;47.466;19.024;2023-08-21T00:16:43;100601.69;;;24.43;92.64
42431;BME280;71905;47.466;19.024;2023-08-21T00:19:11;100604.50;;;24.41;93.04
42431;BME280;71905;47.466;19.024;2023-08-21T00:21:40;100612.75;;;24.40;93.27
42431;BME280;71905;47.466;19.024;2023-08-21T00:24:08;100610.03;;;24.40;93.18
42431;BME280;71905;47.466;19.024;2023-08-21T00:26:36;100609.28;;;24.38;93.74
42431;BME280;71905;47.466;19.024;2023-08-21T00:29:03;100602.19;;;24.36;93.64
42431;BME280;71905;47.466;19.024;2023-08-21T00:31:31;100604.88;;;24.36;93.71
42431;BME280;71905;47.466;19.024;2023-08-21T00:34:01;100605.75;;;24.37;93.51
42431;BME280;71905;47.466;19.024;2023-08-21T00:36:29;100606.72;;;24.36;93.23
42431;BME280;71905;47.466;19.024;2023-08-21T00:38:57;100607.84;;;24.33;93.35
42431;BME280;71905;47.466;19.024;2023-08-21T00:41:25;100615.97;;;24.33;94.17
42431;BME280;71905;47.466;19.024;2023-08-21T00:43:53;100618.66;;;24.33;94.10
42431;BME280;71905;47.466;19.024;2023-08-21T00:46:21;100620.50;;;24.33;94.66
42431;BME280;71905;47.466;19.024;2023-08-21T00:48:50;100620.50;;;24.33;94.48
42431;BME280;71905;47.466;19.024;2023-08-21T00:51:20;100625.06;;;24.32;94.29
42431;BME280;71905;47.466;19.024;2023-08-21T00:53:48;100625.75;;;24.34;94.15
42431;BME280;71905;47.466;19.024;2023-08-21T00:56:18;100625.06;;;24.32;93.78
42431;BME280;71905;47.466;19.024;2023-08-21T00:58:48;100615.97;;;24.33;94.03
42431;BME280;71905;47.466;19.024;2023-08-21T01:01:22;100625.91;;;24.33;93.69
42431;BME280;71905;47.466;19.024;2023-08-21T01:03:52;100618.66;;;24.33;93.30
42431;BME280;71905;47.466;19.024;2023-08-21T01:06:21;100618.66;;;24.33;93.35
42431;BME280;71905;47.466;19.024;2023-08-21T01:08:54;100610.84;;;24.30;93.18
42431;BME280;71905;47.466;19.024;2023-08-21T01:11:30;100620.78;;;24.30;93.51
42431;BME280;71905;47.466;19.024;2023-08-21T01:14:08;100614.63;;;24.28;93.34
42431;BME280;71905;47.466;19.024;2023-08-21T01:16:39;100623.81;;;24.25;93.17
42431;BME280;71905;47.466;19.024;2023-08-21T01:19:14;100624.22;;;24.21;93.38
42431;BME280;71905;47.466;19.024;2023-08-21T01:21:48;100628.03;;;24.18;93.24
42431;BME280;71905;47.466;19.024;2023-08-21T01:24:20;100627.31;;;24.16;94.07
42431;BME280;71905;47.466;19.024;2023-08-21T01:26:48;100624.75;;;24.15;94.23
42431;BME280;71905;47.466;19.024;2023-08-21T01:29:16;100628.53;;;24.12;93.78
42431;BME280;71905;47.466;19.024;2023-08-21T01:31:47;100632.22;;;24.11;94.02
42431;BME280;71905;47.466;19.024;2023-08-21T01:34:18;100626.97;;;24.10;93.78
42431;BME280;71905;47.466;19.024;2023-08-21T01:36:48;100625.84;;;24.12;93.36
42431;BME280;71905;47.466;19.024;2023-08-21T01:39:16;100623.00;;;24.14;93.16
42431;BME280;71905;47.466;19.024;2023-08-21T01:41:45;100623.78;;;24.16;93.14
42431;BME280;71905;47.466;19.024;2023-08-21T01:44:15;100628.03;;;24.18;93.11
42431;BME280;71905;47.466;19.024;2023-08-21T01:46:43;100622.66;;;24.18;92.94
42431;BME280;71905;47.466;19.024;2023-08-21T01:49:11;100628.91;;;24.19;92.45
42431;BME280;71905;47.466;19.024;2023-08-21T01:51:39;100631.47;;;24.20;92.56
42431;BME280;71905;47.466;19.024;2023-08-21T01:54:07;100625.22;;;24.20;92.34
42431;BME280;71905;47.466;19.024;2023-08-21T01:56:35;100635.00;;;24.21;91.99
42431;BME280;71905;47.466;19.024;2023-08-21T01:59:05;100628.91;;;24.19;92.50
42431;BME280;71905;47.466;19.024;2023-08-21T02:01:33;100630.59;;;24.20;92.22
42431;BME280;71905;47.466;19.024;2023-08-21T02:04:02;100627.50;;;24.24;92.29
42431;BME280;71905;47.466;19.024;2023-08-21T02:06:30;100635.38;;;24.27;92.02
42431;BME280;71905;47.466;19.024;2023-08-21T02:08:58;100631.81;;;24.27;91.80
42431;BME280;71905;47.466;19.024;2023-08-21T02:11:26;100626.66;;;24.24;92.16
42431;BME280;71905;47.466;19.024;2023-08-21T02:13:54;100632.19;;;24.22;92.54
42431;BME280;71905;47.466;19.024;2023-08-21T02:16:23;100635.16;;;24.19;93.11
42431;BME280;71905;47.466;19.024;2023-08-21T02:18:51;100634.16;;;24.20;92.62
42431;BME280;71905;47.466;19.024;2023-08-21T02:21:20;100637.56;;;24.22;92.64
42431;BME280;71905;47.466;19.024;2023-08-21T02:23:48;100635.72;;;24.23;92.64
42431;BME280;71905;47.466;19.024;2023-08-21T02:26:16;100639.28;;;24.23;92.54
42431;BME280;71905;47.466;19.024;2023-08-21T02:28:46;100638.44;;;24.23;92.53
42431;BME280;71905;47.466;19.024;2023-08-21T02:31:14;100638.56;;;24.21;92.67
42431;BME280;71905;47.466;19.024;2023-08-21T02:33:44;100638.84;;;24.18;92.78
42431;BME280;71905;47.466;19.024;2023-08-21T02:36:12;100635.28;;;24.18;92.19
42431;BME280;71905;47.466;19.024;2023-08-21T02:38:40;100638.84;;;24.18;92.78
42431;BME280;71905;47.466;19.024;2023-08-21T02:41:08;100630.75;;;24.18;92.36
42431;BME280;71905;47.466;19.024;2023-08-21T02:43:36;100636.41;;;24.15;92.41
42431;BME280;71905;47.466;19.024;2023-08-21T02:46:04;100635.91;;;24.10;92.03
42431;BME280;71905;47.466;19.024;2023-08-21T02:48:32;100633.34;;;24.08;92.30
42431;BME280;71905;47.466;19.024;2023-08-21T02:51:02;100628.22;;;24.05;91.99
42431;BME280;71905;47.466;19.024;2023-08-21T02:53:31;100626.66;;;24.03;92.10
42431;BME280;71905;47.466;19.024;2023-08-21T02:55:59;100624.19;;;24.00;91.75
42431;BME280;71905;47.466;19.024;2023-08-21T02:58:27;100630.69;;;23.97;92.08
42431;BME280;71905;47.466;19.024;2023-08-21T03:00:55;100635.50;;;23.94;92.83
42431;BME280;71905;47.466;19.024;2023-08-21T03:03:23;100628.03;;;23.86;93.35
42431;BME280;71905;47.466;19.024;2023-08-21T03:05:52;100633.84;;;23.82;95.32
42431;BME280;71905;47.466;19.024;2023-08-21T03:08:21;100631.91;;;23.72;96.83
42431;BME280;71905;47.466;19.024;2023-08-21T03:10:49;100624.94;;;23.59;97.91
42431;BME280;71905;47.466;19.024;2023-08-21T03:13:17;100627.03;;;23.55;98.89
42431;BME280;71905;47.466;19.024;2023-08-21T03:15:46;100630.47;;;23.46;99.31
42431;BME280;71905;47.466;19.024;2023-08-21T03:18:15;100633.41;;;23.43;100.00
42431;BME280;71905;47.466;19.024;2023-08-21T03:20:44;100631.84;;;23.40;99.72
42431;BME280;71905;47.466;19.024;2023-08-21T03:23:12;100640.41;;;23.34;98.97
42431;BME280;71905;47.466;19.024;2023-08-21T03:25:42;100634.88;;;23.36;98.71
42431;BME280;71905;47.466;19.024;2023-08-21T03:28:10;100640.53;;;23.33;98.42
42431;BME280;71905;47.466;19.024;2023-08-21T03:30:39;100638.81;;;23.32;98.00
42431;BME280;71905;47.466;19.024;2023-08-21T03:33:08;100640.41;;;23.34;97.24
42431;BME280;71905;47.466;19.024;2023-08-21T03:35:37;100640.28;;;23.36;96.86
42431;BME280;71905;47.466;19.024;2023-08-21T03:38:07;100644.94;;;23.34;97.23
42431;BME280;71905;47.466;19.024;2023-08-21T03:40:44;100638.09;;;23.30;97.54
42431;BME280;71905;47.466;19.024;2023-08-21T03:43:13;100642.63;;;23.29;97.28
42431;BME280;71905;47.466;19.024;2023-08-21T03:45:41;100638.56;;;23.24;98.74
42431;BME280;71905;47.466;19.024;2023-08-21T03:48:09;100638.81;;;23.20;99.33
42431;BME280;71905;47.466;19.024;2023-08-21T03:50:37;100645.81;;;23.23;99.36
42431;BME280;71905;47.466;19.024;2023-08-21T03:53:05;100643.22;;;23.22;99.38
42431;BME280;71905;47.466;19.024;2023-08-21T03:55:33;100640.53;;;23.22;99.01
42431;BME280;71905;47.466;19.024;2023-08-21T03:58:03;100645.94;;;23.22;99.48
42431;BME280;71905;47.466;19.024;2023-08-21T04:00:32;100648.75;;;23.20;99.86
42431;BME280;71905;47.466;19.024;2023-08-21T04:03:00;100646.44;;;23.15;100.00
42431;BME280;71905;47.466;19.024;2023-08-21T04:05:28;100642.25;;;23.11;100.00
42431;BME280;71905;47.466;19.024;2023-08-21T04:07:56;100640.53;;;23.10;100.00
42431;BME280;71905;47.466;19.024;2023-08-21T04:10:24;100641.53;;;23.09;100.00
42431;BME280;71905;47.466;19.024;2023-08-21T04:12:55;100646.44;;;23.04;100.00
42431;BME280;71905;47.466;19.024;2023-08-21T04:15:25;100649.88;;;23.06;100.00
42431;BME280;71905;47.466;19.024;2023-08-21T04:17:54;100636.91;;;23.00;100.00
42431;BME280;71905;47.466;19.024;2023-08-21T04:20:22;100638.47;;;22.92;100.00
42431;BME280;71905;47.466;19.024;2023-08-21T04:22:51;100637.25;;;22.84;100.00
42431;BME280;71905;47.466;19.024;2023-08-21T04:25:19;100642.97;;;22.80;100.00
42431;BME280;71905;47.466;19.024;2023-08-21T04:27:47;100649.47;;;22.77;100.00
42431;BME280;71905;47.466;19.024;2023-08-21T04:30:15;100644.94;;;22.78;100.00
42431;BME280;71905;47.466;19.024;2023-08-21T04:32:47;100654.00;;;22.77;100.00
42431;BME280;71905;47.466;19.024;2023-08-21T04:35:16;100651.16;;;22.78;100.00
42431;BME280;71905;47.466;19.024;2023-08-21T04:37:46;100652.75;;;22.81;100.00
42431;BME280;71905;47.466;19.024;2023-08-21T04:40:17;100660.97;;;22.79;100.00
42431;BME280;71905;47.466;19.024;2023-08-21T04:42:48;100659.00;;;22.81;100.00
42431;BME280;71905;47.466;19.024;2023-08-21T04:45:17;100655.44;;;22.81;100.00
42431;BME280;71905;47.466;19.024;2023-08-21T04:47:47;100656.22;;;22.83;100.00
42431;BME280;71905;47.466;19.024;2023-08-21T04:50:15;100659.63;;;22.85;100.00
42431;BME280;71905;47.466;19.024;2023-08-21T04:52:43;100662.72;;;22.92;100.00
42431;BME280;71905;47.466;19.024;2023-08-21T04:55:11;100660.75;;;22.94;100.00
42431;BME280;71905;47.466;19.024;2023-08-21T04:57:40;100659.53;;;22.98;100.00
42431;BME280;71905;47.466;19.024;2023-08-21T05:00:11;100666.75;;;22.97;100.00
42431;BME280;71905;47.466;19.024;2023-08-21T05:02:41;100666.75;;;22.97;100.00
42431;BME280;71905;47.466;19.024;2023-08-21T05:05:12;100666.88;;;22.96;100.00
42431;BME280;71905;47.466;19.024;2023-08-21T05:07:40;100669.44;;;22.97;100.00
42431;BME280;71905;47.466;19.024;2023-08-21T05:10:09;100669.97;;;23.02;100.00
42431;BME280;71905;47.466;19.024;2023-08-21T05:12:38;100673.38;;;23.04;100.00
42431;BME280;71905;47.466;19.024;2023-08-21T05:15:07;100672.28;;;23.07;100.00
42431;BME280;71905;47.466;19.024;2023-08-21T05:17:35;100670.94;;;23.12;100.00
42431;BME280;71905;47.466;19.024;2023-08-21T05:20:04;100677.53;;;23.19;100.00
42431;BME280;71905;47.466;19.024;2023-08-21T05:22:34;100683.41;;;23.25;100.00
42431;BME280;71905;47.466;19.024;2023-08-21T05:25:03;100674.13;;;23.29;100.00
42431;BME280;71905;47.466;19.024;2023-08-21T05:27:32;100679.63;;;23.38;100.00
42431;BME280;71905;47.466;19.024;2023-08-21T05:30:00;100673.00;;;23.42;100.00
42431;BME280;71905;47.466;19.024;2023-08-21T05:32:28;100680.97;;;23.44;100.00
42431;BME280;71905;47.466;19.024;2023-08-21T05:34:56;100679.84;;;23.46;100.00
42431;BME280;71905;47.466;19.024;2023-08-21T05:37:24;100682.91;;;23.53;100.00
42431;BME280;71905;47.466;19.024;2023-08-21T05:39:57;100686.13;;;23.58;100.00
42431;BME280;71905;47.466;19.024;2023-08-21T05:42:25;100690.03;;;23.65;100.00
42431;BME280;71905;47.466;19.024;2023-08-21T05:44:53;100680.19;;;23.75;100.00
42431;BME280;71905;47.466;19.024;2023-08-21T05:47:22;100684.81;;;23.85;100.00
42431;BME280;71905;47.466;19.024;2023-08-21T05:49:51;100692.88;;;23.96;100.00
42431;BME280;71905;47.466;19.024;2023-08-21T05:52:21;100689.31;;;24.06;100.00
42431;BME280;71905;47.466;19.024;2023-08-21T05:54:49;100695.88;;;24.14;100.00
42431;BME280;71905;47.466;19.024;2023-08-21T05:57:19;100694.25;;;24.22;100.00
42431;BME280;71905;47.466;19.024;2023-08-21T05:59:47;100701.75;;;24.30;99.48
42431;BME280;71905;47.466;19.024;2023-08-21T06:02:15;100691.91;;;24.40;99.39
42431;BME280;71905;47.466;19.024;2023-08-21T06:04:43;100696.91;;;24.45;98.89
42431;BME280;71905;47.466;19.024;2023-08-21T06:07:11;100698.97;;;24.52;98.68
42431;BME280;71905;47.466;19.024;2023-08-21T06:09:39;100694.88;;;24.58;98.50
42431;BME280;71905;47.466;19.024;2023-08-21T06:12:08;100698.88;;;24.63;98.84
42431;BME280;71905;47.466;19.024;2023-08-21T06:14:40;100697.63;;;24.68;98.00
42431;BME280;71905;47.466;19.024;2023-08-21T06:17:11;100699.06;;;24.72;97.04
42431;BME280;71905;47.466;19.024;2023-08-21T06:19:39;100695.97;;;24.76;97.06
42431;BME280;71905;47.466;19.024;2023-08-21T06:22:10;100696.44;;;24.81;96.82
42431;BME280;71905;47.466;19.024;2023-08-21T06:24:38;100696.75;;;24.88;95.73
42431;BME280;71905;47.466;19.024;2023-08-21T06:27:09;100697.81;;;24.97;95.19
42431;BME280;71905;47.466;19.024;2023-08-21T06:29:37;100702.69;;;25.03;93.91
42431;BME280;71905;47.466;19.024;2023-08-21T06:32:08;100699.47;;;25.09;93.43
42431;BME280;71905;47.466;19.024;2023-08-21T06:34:37;100701.75;;;25.13;93.68
42431;BME280;71905;47.466;19.024;2023-08-21T06:37:05;100709.47;;;25.18;94.41
42431;BME280;71905;47.466;19.024;2023-08-21T06:39:34;100704.50;;;25.23;94.22
42431;BME280;71905;47.466;19.024;2023-08-21T06:42:03;100709.50;;;25.28;94.22
42431;BME280;71905;47.466;19.024;2023-08-21T06:44:39;100703.69;;;25.32;93.49
42431;BME280;71905;47.466;19.024;2023-08-21T06:47:08;100703.28;;;25.37;91.43
42431;BME280;71905;47.466;19.024;2023-08-21T06:49:37;100703.75;;;25.42;90.95
42431;BME280;71905;47.466;19.024;2023-08-21T06:52:05;100711.16;;;25.49;90.87
42431;BME280;71905;47.466;19.024;2023-08-21T06:54:33;100708.06;;;25.54;90.13
42431;BME280;71905;47.466;19.024;2023-08-21T06:57:01;100705.94;;;25.58;88.67
42431;BME280;71905;47.466;19.024;2023-08-21T06:59:29;100700.56;;;25.67;87.51
42431;BME280;71905;47.466;19.024;2023-08-21T07:01:58;100700.00;;;25.73;86.62
42431;BME280;71905;47.466;19.024;2023-08-21T07:04:28;100702.28;;;25.78;84.59
42431;BME280;71905;47.466;19.024;2023-08-21T07:06:56;100692.06;;;25.81;83.39
42431;BME280;71905;47.466;19.024;2023-08-21T07:09:24;100695.19;;;25.87;81.17
42431;BME280;71905;47.466;19.024;2023-08-21T07:11:52;100698.47;;;25.90;80.68
42431;BME280;71905;47.466;19.024;2023-08-21T07:14:20;100695.63;;;25.92;80.97
42431;BME280;71905;47.466;19.024;2023-08-21T07:16:48;100706.03;;;25.96;81.78
42431;BME280;71905;47.466;19.024;2023-08-21T07:19:17;100703.63;;;26.03;82.63
42431;BME280;71905;47.466;19.024;2023-08-21T07:21:46;100696.94;;;26.07;83.20
42431;BME280;71905;47.466;19.024;2023-08-21T07:24:14;100699.78;;;26.15;82.20
42431;BME280;71905;47.466;19.024;2023-08-21T07:26:42;100702.94;;;26.20;81.62
42431;BME280;71905;47.466;19.024;2023-08-21T07:29:10;100696.09;;;26.26;80.40
42431;BME280;71905;47.466;19.024;2023-08-21T07:31:38;100705.78;;;26.28;80.57
42431;BME280;71905;47.466;19.024;2023-08-21T07:34:06;100701.94;;;26.31;81.37
42431;BME280;71905;47.466;19.024;2023-08-21T07:36:35;100695.97;;;26.37;81.33
42431;BME280;71905;47.466;19.024;2023-08-21T07:39:04;100705.25;;;26.44;80.27
42431;BME280;71905;47.466;19.024;2023-08-21T07:41:32;100705.38;;;26.52;78.81
42431;BME280;71905;47.466;19.024;2023-08-21T07:44:01;100704.50;;;26.61;77.98
42431;BME280;71905;47.466;19.024;2023-08-21T07:46:29;100712.19;;;26.66;78.52
42431;BME280;71905;47.466;19.024;2023-08-21T07:48:57;100712.47;;;26.73;80.98
42431;BME280;71905;47.466;19.024;2023-08-21T07:51:25;100712.75;;;26.79;80.75
42431;BME280;71905;47.466;19.024;2023-08-21T07:53:54;100707.06;;;26.82;80.50
42431;BME280;71905;47.466;19.024;2023-08-21T07:56:27;100711.03;;;26.88;81.75
42431;BME280;71905;47.466;19.024;2023-08-21T07:59:15;100711.16;;;26.96;81.79
42431;BME280;71905;47.466;19.024;2023-08-21T08:01:43;100708.00;;;27.01;80.23
42431;BME280;71905;47.466;19.024;2023-08-21T08:04:11;100713.84;;;27.06;78.52
42431;BME280;71905;47.466;19.024;2023-08-21T08:06:41;100709.31;;;27.06;77.85
42431;BME280;71905;47.466;19.024;2023-08-21T08:09:09;100709.72;;;27.11;78.55
42431;BME280;71905;47.466;19.024;2023-08-21T08:11:38;100718.25;;;27.16;79.75
42431;BME280;71905;47.466;19.024;2023-08-21T08:14:06;100710.06;;;27.26;80.19
42431;BME280;71905;47.466;19.024;2023-08-21T08:16:35;100712.22;;;27.32;77.93
42431;BME280;71905;47.466;19.024;2023-08-21T08:19:03;100712.06;;;27.34;76.38
42431;BME280;71905;47.466;19.024;2023-08-21T08:21:31;100711.44;;;27.40;77.42
42431;BME280;71905;47.466;19.024;2023-08-21T08:23:59;100717.00;;;27.48;74.34
42431;BME280;71905;47.466;19.024;2023-08-21T08:26:27;100709.66;;;27.58;73.96
42431;BME280;71905;47.466;19.024;2023-08-21T08:28:56;100703.50;;;27.56;78.42
42431;BME280;71905;47.466;19.024;2023-08-21T08:31:24;100712.97;;;27.52;79.04
42431;BME280;71905;47.466;19.024;2023-08-21T08:33:54;100703.81;;;27.53;77.04
42431;BME280;71905;47.466;19.024;2023-08-21T08:36:22;100707.94;;;27.57;76.01
42431;BME280;71905;47.466;19.024;2023-08-21T08:38:50;100704.06;;;27.60;75.87
42431;BME280;71905;47.466;19.024;2023-08-21T08:41:25;100708.59;;;27.69;74.84
42431;BME280;71905;47.466;19.024;2023-08-21T08:43:58;100711.59;;;27.75;71.92
42431;BME280;71905;47.466;19.024;2023-08-21T08:46:28;100711.28;;;27.78;73.39
42431;BME280;71905;47.466;19.024;2023-08-21T08:48:57;100716.00;;;27.76;74.50
42431;BME280;71905;47.466;19.024;2023-08-21T08:51:28;100719.09;;;27.81;71.58
42431;BME280;71905;47.466;19.024;2023-08-21T08:53:58;100717.66;;;27.87;70.45
42431;BME280;71905;47.466;19.024;2023-08-21T08:56:27;100719.31;;;27.98;69.21
42431;BME280;71905;47.466;19.024;2023-08-21T08:58:55;100714.09;;;28.04;68.75
42431;BME280;71905;47.466;19.024;2023-08-21T09:01:25;100718.06;;;28.10;67.97
42431;BME280;71905;47.466;19.024;2023-08-21T09:03:53;100719.31;;;28.15;68.44
42431;BME280;71905;47.466;19.024;2023-08-21T09:06:22;100714.28;;;28.21;68.28
42431;BME280;71905;47.466;19.024;2023-08-21T09:08:53;100723.66;;;28.26;67.51
42431;BME280;71905;47.466;19.024;2023-08-21T09:11:22;100715.31;;;28.37;66.14
42431;BME280;71905;47.466;19.024;2023-08-21T09:13:50;100718.69;;;28.57;64.08
42431;BME280;71905;47.466;19.024;2023-08-21T09:16:18;100717.38;;;28.61;63.70
42431;BME280;71905;47.466;19.024;2023-08-21T09:18:52;100718.09;;;28.63;65.73
42431;BME280;71905;47.466;19.024;2023-08-21T09:21:21;100711.47;;;28.66;66.16
42431;BME280;71905;47.466;19.024;2023-08-21T09:23:56;100709.94;;;28.63;64.38
42431;BME280;71905;47.466;19.024;2023-08-21T09:26:25;100707.91;;;28.65;63.58
42431;BME280;71905;47.466;19.024;2023-08-21T09:28:53;100705.03;;;28.67;65.02
42431;BME280;71905;47.466;19.024;2023-08-21T09:31:22;100701.28;;;28.68;63.20
42431;BME280;71905;47.466;19.024;2023-08-21T09:33:59;100704.41;;;28.73;62.58
42431;BME280;71905;47.466;19.024;2023-08-21T09:36:27;100699.50;;;28.77;60.30
42431;BME280;71905;47.466;19.024;2023-08-21T09:38:55;100692.88;;;28.79;59.59
42431;BME280;71905;47.466;19.024;2023-08-21T09:41:26;100696.53;;;28.88;59.02
42431;BME280;71905;47.466;19.024;2023-08-21T09:43:58;100699.84;;;28.99;59.21
42431;BME280;71905;47.466;19.024;2023-08-21T09:46:27;100692.22;;;29.03;59.18
42431;BME280;71905;47.466;19.024;2023-08-21T09:48:55;100695.84;;;29.12;59.46
42431;BME280;71905;47.466;19.024;2023-08-21T09:51:26;100696.03;;;29.18;59.08
42431;BME280;71905;47.466;19.024;2023-08-21T09:53:55;100690.81;;;29.25;57.34
42431;BME280;71905;47.466;19.024;2023-08-21T09:56:23;100690.66;;;29.26;57.16
42431;BME280;71905;47.466;19.024;2023-08-21T09:58:52;100686.09;;;29.35;57.25
42431;BME280;71905;47.466;19.024;2023-08-21T10:01:21;100683.56;;;29.42;57.06
42431;BME280;71905;47.466;19.024;2023-08-21T10:03:51;100686.03;;;29.53;56.38
42431;BME280;71905;47.466;19.024;2023-08-21T10:06:21;100681.44;;;29.53;56.50
42431;BME280;71905;47.466;19.024;2023-08-21T10:08:53;100676.03;;;29.62;57.30
42431;BME280;71905;47.466;19.024;2023-08-21T10:11:22;100676.88;;;29.70;57.78
42431;BME280;71905;47.466;19.024;2023-08-21T10:13:51;100670.13;;;29.82;54.21
42431;BME280;71905;47.466;19.024;2023-08-21T10:16:19;100668.59;;;29.96;53.57
42431;BME280;71905;47.466;19.024;2023-08-21T10:18:48;100665.56;;;29.99;53.80
42431;BME280;71905;47.466;19.024;2023-08-21T10:21:18;100672.09;;;30.14;53.06
42431;BME280;71905;47.466;19.024;2023-08-21T10:23:47;100666.28;;;30.17;53.12
42431;BME280;71905;47.466;19.024;2023-08-21T10:26:19;100662.22;;;30.30;50.52
42431;BME280;71905;47.466;19.024;2023-08-21T10:28:50;100669.88;;;30.34;50.93
42431;BME280;71905;47.466;19.024;2023-08-21T10:31:30;100673.78;;;30.32;50.86
42431;BME280;71905;47.466;19.024;2023-08-21T10:33:59;100661.16;;;30.23;51.24
42431;BME280;71905;47.466;19.024;2023-08-21T10:36:38;100664.25;;;30.36;51.99
42431;BME280;71905;47.466;19.024;2023-08-21T10:39:12;100664.75;;;30.47;51.89
42431;BME280;71905;47.466;19.024;2023-08-21T10:41:52;100657.78;;;30.53;49.86
42431;BME280;71905;47.466;19.024;2023-08-21T10:44:38;100656.06;;;30.52;50.63
42431;BME280;71905;47.466;19.024;2023-08-21T10:47:17;100657.06;;;30.59;50.09
42431;BME280;71905;47.466;19.024;2023-08-21T10:49:46;100665.25;;;30.59;50.17
42431;BME280;71905;47.466;19.024;2023-08-21T10:52:20;100666.81;;;30.70;51.26
42431;BME280;71905;47.466;19.024;2023-08-21T10:54:50;100667.31;;;30.73;50.36
42431;BME280;71905;47.466;19.024;2023-08-21T10:57:19;100660.31;;;30.71;49.83
42431;BME280;71905;47.466;19.024;2023-08-21T10:59:55;100663.22;;;30.78;50.87
42431;BME280;71905;47.466;19.024;2023-08-21T11:02:28;100664.09;;;30.78;50.60
42431;BME280;71905;47.466;19.024;2023-08-21T11:04:57;100656.75;;;30.79;49.30
42431;BME280;71905;47.466;19.024;2023-08-21T11:07:26;100651.78;;;30.82;49.45
42431;BME280;71905;47.466;19.024;2023-08-21T11:09:55;100649.22;;;30.89;48.81
42431;BME280;71905;47.466;19.024;2023-08-21T11:12:25;100651.44;;;30.93;49.15
42431;BME280;71905;47.466;19.024;2023-08-21T11:14:53;100650.69;;;31.08;49.83
42431;BME280;71905;47.466;19.024;2023-08-21T11:17:21;100650.50;;;31.09;47.91
42431;BME280;71905;47.466;19.024;2023-08-21T11:19:50;100646.06;;;31.16;48.29
42431;BME280;71905;47.466;19.024;2023-08-21T11:22:18;100640.59;;;31.24;49.71
42431;BME280;71905;47.466;19.024;2023-08-21T11:24:48;100640.44;;;31.26;49.46
42431;BME280;71905;47.466;19.024;2023-08-21T11:27:18;100645.19;;;31.32;48.49
42431;BME280;71905;47.466;19.024;2023-08-21T11:29:52;100642.72;;;31.45;48.89
42431;BME280;71905;47.466;19.024;2023-08-21T11:32:22;100647.13;;;31.54;47.81
42431;BME280;71905;47.466;19.024;2023-08-21T11:34:52;100636.28;;;31.69;47.59
42431;BME280;71905;47.466;19.024;2023-08-21T11:37:21;100631.00;;;31.68;46.82
42431;BME280;71905;47.466;19.024;2023-08-21T11:39:51;100642.50;;;31.86;46.35
42431;BME280;71905;47.466;19.024;2023-08-21T11:42:20;100633.78;;;31.90;45.72
42431;BME280;71905;47.466;19.024;2023-08-21T11:44:51;100636.44;;;31.99;46.23
42431;BME280;71905;47.466;19.024;2023-08-21T11:47:22;100641.13;;;32.13;45.94
42431;BME280;71905;47.466;19.024;2023-08-21T11:49:50;100641.81;;;32.15;44.77
42431;BME280;71905;47.466;19.024;2023-08-21T11:52:20;100638.31;;;32.21;44.05
42431;BME280;71905;47.466;19.024;2023-08-21T11:54:49;100632.88;;;32.21;44.56
42431;BME280;71905;47.466;19.024;2023-08-21T11:57:19;100629.06;;;32.30;44.16
42431;BME280;71905;47.466;19.024;2023-08-21T11:59:53;100626.44;;;32.52;43.81
42431;BME280;71905;47.466;19.024;2023-08-21T12:02:22;100625.94;;;32.71;44.74
42431;BME280;71905;47.466;19.024;2023-08-21T12:04:55;100626.81;;;32.86;43.57
42431;BME280;71905;47.466;19.024;2023-08-21T12:07:29;100621.72;;;32.98;42.79
42431;BME280;71905;47.466;19.024;2023-08-21T12:09:57;100625.94;;;33.15;43.61
42431;BME280;71905;47.466;19.024;2023-08-21T12:12:25;100615.94;;;33.22;42.42
42431;BME280;71905;47.466;19.024;2023-08-21T12:14:54;100620.66;;;33.28;42.41
42431;BME280;71905;47.466;19.024;2023-08-21T12:17:23;100616.91;;;33.44;42.61
42431;BME280;71905;47.466;19.024;2023-08-21T12:19:51;100617.59;;;33.68;41.99
42431;BME280;71905;47.466;19.024;2023-08-21T12:22:19;100619.50;;;33.88;42.86
42431;BME280;71905;47.466;19.024;2023-08-21T12:24:48;100615.16;;;33.79;40.25
42431;BME280;71905;47.466;19.024;2023-08-21T12:27:16;100613.56;;;33.85;41.10
42431;BME280;71905;47.466;19.024;2023-08-21T12:29:44;100611.09;;;33.90;40.90
42431;BME280;71905;47.466;19.024;2023-08-21T12:32:15;100609.97;;;33.84;39.92
42431;BME280;71905;47.466;19.024;2023-08-21T12:34:43;100613.50;;;34.00;40.14
42431;BME280;71905;47.466;19.024;2023-08-21T12:37:13;100611.03;;;34.05;39.72
42431;BME280;71905;47.466;19.024;2023-08-21T12:39:43;100608.22;;;34.19;39.76
42431;BME280;71905;47.466;19.024;2023-08-21T12:42:11;100608.88;;;34.21;39.33
42431;BME280;71905;47.466;19.024;2023-08-21T12:44:40;100602.28;;;34.16;40.17
42431;BME280;71905;47.466;19.024;2023-08-21T12:47:08;100598.94;;;34.20;40.93
42431;BME280;71905;47.466;19.024;2023-08-21T12:49:38;100600.97;;;34.12;39.39